Enaville, Idaho
Current Conditions -  °F | °C
As of 1:35 AM on Monday 20 Oct 2014 (Local Time) from KCOE Reporting Station
Clear Clear  
Wind Chill: 44°   Ceiling: Unl
Heat Index: 48°   Visibility: 10mi
Dew Point: 45°   Wind: 10mph
Humidity: 87%   Direction: 70°ENE
Pressure: 29.78"   Gusts: NA
Location:  47.5619°N, 116.294°W
Report Text: KCOE 200835Z AUTO 07009KT 10SM CLR 09/07 A2978 RMK AO1
Loading
Personal Weather Stations






























Interactive Weather Map
Tropical Storm Tracking
New forecast layout! Learn more

10-Day Weather Forecast

Advertisements
Track Severe Weather on mobile